sensor_id;sensor_type;location;lat;lon;timestamp;P1;durP1;ratioP1;P2;durP2;ratioP2
36457;SDS011;22480;50.546;12.292;2023-04-03T00:01:35;4.77;;;1.50;;
36457;SDS011;22480;50.546;12.292;2023-04-03T00:04:03;3.50;;;1.37;;
36457;SDS011;22480;50.546;12.292;2023-04-03T00:06:30;5.20;;;1.70;;
36457;SDS011;22480;50.546;12.292;2023-04-03T00:08:56;6.50;;;1.60;;
36457;SDS011;22480;50.546;12.292;2023-04-03T00:11:22;6.97;;;1.60;;
36457;SDS011;22480;50.546;12.292;2023-04-03T00:13:47;6.93;;;2.17;;
36457;SDS011;22480;50.546;12.292;2023-04-03T00:16:13;4.47;;;1.90;;
36457;SDS011;22480;50.546;12.292;2023-04-03T00:18:39;4.70;;;1.50;;
36457;SDS011;22480;50.546;12.292;2023-04-03T00:21:05;4.73;;;1.77;;
36457;SDS011;22480;50.546;12.292;2023-04-03T00:23:31;3.63;;;1.70;;
36457;SDS011;22480;50.546;12.292;2023-04-03T00:25:57;5.53;;;2.00;;
36457;SDS011;22480;50.546;12.292;2023-04-03T00:28:23;5.93;;;2.03;;
36457;SDS011;22480;50.546;12.292;2023-04-03T00:30:49;4.47;;;1.73;;
36457;SDS011;22480;50.546;12.292;2023-04-03T00:33:15;3.03;;;1.43;;
36457;SDS011;22480;50.546;12.292;2023-04-03T00:35:42;3.07;;;1.73;;
36457;SDS011;22480;50.546;12.292;2023-04-03T00:38:08;5.37;;;1.60;;
36457;SDS011;22480;50.546;12.292;2023-04-03T00:40:35;4.93;;;1.90;;
36457;SDS011;22480;50.546;12.292;2023-04-03T00:43:05;5.27;;;1.83;;
36457;SDS011;22480;50.546;12.292;2023-04-03T00:45:47;5.87;;;1.23;;
36457;SDS011;22480;50.546;12.292;2023-04-03T00:48:19;5.57;;;1.08;;
36457;SDS011;22480;50.546;12.292;2023-04-03T00:50:47;5.00;;;1.67;;
36457;SDS011;22480;50.546;12.292;2023-04-03T00:53:16;2.53;;;1.20;;
36457;SDS011;22480;50.546;12.292;2023-04-03T00:55:46;5.00;;;2.13;;
36457;SDS011;22480;50.546;12.292;2023-04-03T00:58:13;6.50;;;1.30;;
36457;SDS011;22480;50.546;12.292;2023-04-03T01:00:42;6.77;;;1.87;;
36457;SDS011;22480;50.546;12.292;2023-04-03T01:03:11;4.60;;;1.60;;
36457;SDS011;22480;50.546;12.292;2023-04-03T01:05:39;6.07;;;1.70;;
36457;SDS011;22480;50.546;12.292;2023-04-03T01:08:05;4.87;;;1.70;;
36457;SDS011;22480;50.546;12.292;2023-04-03T01:10:32;4.13;;;1.37;;
36457;SDS011;22480;50.546;12.292;2023-04-03T01:12:58;4.30;;;1.60;;
36457;SDS011;22480;50.546;12.292;2023-04-03T01:15:26;5.67;;;1.83;;
36457;SDS011;22480;50.546;12.292;2023-04-03T01:17:56;3.38;;;1.67;;
36457;SDS011;22480;50.546;12.292;2023-04-03T01:25:40;6.07;;;1.40;;
36457;SDS011;22480;50.546;12.292;2023-04-03T01:28:16;5.90;;;2.10;;
36457;SDS011;22480;50.546;12.292;2023-04-03T01:33:34;4.13;;;1.50;;
36457;SDS011;22480;50.546;12.292;2023-04-03T01:36:01;1.93;;;1.30;;
36457;SDS011;22480;50.546;12.292;2023-04-03T01:38:28;6.27;;;1.60;;
36457;SDS011;22480;50.546;12.292;2023-04-03T01:40:53;4.67;;;1.87;;
36457;SDS011;22480;50.546;12.292;2023-04-03T01:43:19;2.03;;;1.10;;
36457;SDS011;22480;50.546;12.292;2023-04-03T01:45:45;2.33;;;1.20;;
36457;SDS011;22480;50.546;12.292;2023-04-03T01:48:12;4.73;;;1.57;;
36457;SDS011;22480;50.546;12.292;2023-04-03T01:50:38;2.37;;;1.70;;
36457;SDS011;22480;50.546;12.292;2023-04-03T01:53:05;3.43;;;1.07;;
36457;SDS011;22480;50.546;12.292;2023-04-03T01:55:30;4.63;;;1.80;;
36457;SDS011;22480;50.546;12.292;2023-04-03T01:57:56;5.50;;;1.30;;
36457;SDS011;22480;50.546;12.292;2023-04-03T02:00:22;3.87;;;1.33;;
36457;SDS011;22480;50.546;12.292;2023-04-03T02:02:49;3.13;;;1.20;;
36457;SDS011;22480;50.546;12.292;2023-04-03T02:05:15;3.60;;;1.77;;
36457;SDS011;22480;50.546;12.292;2023-04-03T02:07:40;5.90;;;1.80;;
36457;SDS011;22480;50.546;12.292;2023-04-03T02:10:07;4.90;;;1.63;;
36457;SDS011;22480;50.546;12.292;2023-04-03T02:12:33;5.67;;;1.60;;
36457;SDS011;22480;50.546;12.292;2023-04-03T02:14:58;5.10;;;1.60;;
36457;SDS011;22480;50.546;12.292;2023-04-03T02:17:25;3.23;;;1.40;;
36457;SDS011;22480;50.546;12.292;2023-04-03T02:19:53;5.00;;;1.60;;
36457;SDS011;22480;50.546;12.292;2023-04-03T02:22:19;6.47;;;1.57;;
36457;SDS011;22480;50.546;12.292;2023-04-03T02:24:45;2.70;;;1.70;;
36457;SDS011;22480;50.546;12.292;2023-04-03T02:27:11;8.00;;;1.77;;
36457;SDS011;22480;50.546;12.292;2023-04-03T02:29:37;4.63;;;1.63;;
36457;SDS011;22480;50.546;12.292;2023-04-03T02:32:03;5.30;;;1.60;;
36457;SDS011;22480;50.546;12.292;2023-04-03T02:34:30;3.30;;;1.23;;
36457;SDS011;22480;50.546;12.292;2023-04-03T02:36:58;4.20;;;1.83;;
36457;SDS011;22480;50.546;12.292;2023-04-03T02:39:24;4.80;;;2.07;;
36457;SDS011;22480;50.546;12.292;2023-04-03T02:41:50;2.87;;;1.33;;
36457;SDS011;22480;50.546;12.292;2023-04-03T02:44:21;7.40;;;1.83;;
36457;SDS011;22480;50.546;12.292;2023-04-03T02:46:48;7.03;;;1.93;;
36457;SDS011;22480;50.546;12.292;2023-04-03T02:49:16;3.17;;;1.70;;
36457;SDS011;22480;50.546;12.292;2023-04-03T02:51:41;3.70;;;1.53;;
36457;SDS011;22480;50.546;12.292;2023-04-03T02:54:08;4.40;;;1.50;;
36457;SDS011;22480;50.546;12.292;2023-04-03T02:56:36;3.93;;;1.80;;
36457;SDS011;22480;50.546;12.292;2023-04-03T02:59:02;6.87;;;1.67;;
36457;SDS011;22480;50.546;12.292;2023-04-03T03:01:28;6.40;;;1.93;;
36457;SDS011;22480;50.546;12.292;2023-04-03T03:03:57;4.40;;;1.63;;
36457;SDS011;22480;50.546;12.292;2023-04-03T03:06:23;5.33;;;1.30;;
36457;SDS011;22480;50.546;12.292;2023-04-03T03:08:49;5.07;;;1.57;;
36457;SDS011;22480;50.546;12.292;2023-04-03T03:11:14;3.23;;;1.87;;
36457;SDS011;22480;50.546;12.292;2023-04-03T03:13:40;6.43;;;1.67;;
36457;SDS011;22480;50.546;12.292;2023-04-03T03:16:06;4.63;;;1.60;;
36457;SDS011;22480;50.546;12.292;2023-04-03T03:18:33;4.20;;;1.50;;
36457;SDS011;22480;50.546;12.292;2023-04-03T03:21:00;8.60;;;1.70;;
36457;SDS011;22480;50.546;12.292;2023-04-03T03:23:27;5.73;;;1.50;;
36457;SDS011;22480;50.546;12.292;2023-04-03T03:25:56;2.90;;;1.43;;
36457;SDS011;22480;50.546;12.292;2023-04-03T03:28:22;3.77;;;1.87;;
36457;SDS011;22480;50.546;12.292;2023-04-03T03:30:48;4.57;;;1.40;;
36457;SDS011;22480;50.546;12.292;2023-04-03T03:33:16;4.07;;;1.70;;
36457;SDS011;22480;50.546;12.292;2023-04-03T03:35:42;2.90;;;1.57;;
36457;SDS011;22480;50.546;12.292;2023-04-03T03:38:08;6.90;;;1.70;;
36457;SDS011;22480;50.546;12.292;2023-04-03T03:40:34;8.73;;;1.73;;
36457;SDS011;22480;50.546;12.292;2023-04-03T03:43:00;7.00;;;1.60;;
36457;SDS011;22480;50.546;12.292;2023-04-03T03:45:26;3.10;;;1.50;;
36457;SDS011;22480;50.546;12.292;2023-04-03T03:47:52;4.50;;;1.90;;
36457;SDS011;22480;50.546;12.292;2023-04-03T03:50:18;7.43;;;2.37;;
36457;SDS011;22480;50.546;12.292;2023-04-03T03:52:44;5.97;;;2.43;;
36457;SDS011;22480;50.546;12.292;2023-04-03T03:55:10;4.70;;;1.60;;
36457;SDS011;22480;50.546;12.292;2023-04-03T03:57:36;6.50;;;1.93;;
36457;SDS011;22480;50.546;12.292;2023-04-03T04:00:02;4.63;;;1.70;;
36457;SDS011;22480;50.546;12.292;2023-04-03T04:02:29;2.47;;;1.87;;
36457;SDS011;22480;50.546;12.292;2023-04-03T04:04:56;9.17;;;3.17;;
36457;SDS011;22480;50.546;12.292;2023-04-03T04:07:21;5.03;;;1.83;;
36457;SDS011;22480;50.546;12.292;2023-04-03T04:09:47;9.23;;;2.67;;
36457;SDS011;22480;50.546;12.292;2023-04-03T04:12:13;6.60;;;1.87;;
36457;SDS011;22480;50.546;12.292;2023-04-03T04:14:39;5.23;;;1.80;;
36457;SDS011;22480;50.546;12.292;2023-04-03T04:17:07;4.80;;;2.37;;
36457;SDS011;22480;50.546;12.292;2023-04-03T04:19:35;4.13;;;1.70;;
36457;SDS011;22480;50.546;12.292;2023-04-03T04:22:01;8.10;;;1.90;;
36457;SDS011;22480;50.546;12.292;2023-04-03T04:24:27;8.80;;;1.97;;
36457;SDS011;22480;50.546;12.292;2023-04-03T04:26:55;5.27;;;2.33;;
36457;SDS011;22480;50.546;12.292;2023-04-03T04:29:21;4.33;;;2.10;;
36457;SDS011;22480;50.546;12.292;2023-04-03T04:31:49;4.43;;;1.40;;
36457;SDS011;22480;50.546;12.292;2023-04-03T04:34:15;6.60;;;1.97;;
36457;SDS011;22480;50.546;12.292;2023-04-03T04:36:41;4.77;;;2.23;;
36457;SDS011;22480;50.546;12.292;2023-04-03T04:39:07;3.97;;;2.63;;
36457;SDS011;22480;50.546;12.292;2023-04-03T04:41:33;7.07;;;3.00;;
36457;SDS011;22480;50.546;12.292;2023-04-03T04:44:01;9.40;;;3.80;;
36457;SDS011;22480;50.546;12.292;2023-04-03T04:46:27;7.00;;;2.30;;
36457;SDS011;22480;50.546;12.292;2023-04-03T04:48:56;6.23;;;3.87;;
36457;SDS011;22480;50.546;12.292;2023-04-03T04:51:24;4.90;;;3.00;;
36457;SDS011;22480;50.546;12.292;2023-04-03T04:53:50;9.23;;;3.67;;
36457;SDS011;22480;50.546;12.292;2023-04-03T04:56:18;8.10;;;3.20;;
36457;SDS011;22480;50.546;12.292;2023-04-03T04:58:44;7.00;;;2.93;;
36457;SDS011;22480;50.546;12.292;2023-04-03T05:01:10;5.23;;;3.10;;
36457;SDS011;22480;50.546;12.292;2023-04-03T05:03:47;5.30;;;2.57;;
36457;SDS011;22480;50.546;12.292;2023-04-03T05:06:13;7.63;;;3.23;;
36457;SDS011;22480;50.546;12.292;2023-04-03T05:08:39;13.67;;;4.00;;
36457;SDS011;22480;50.546;12.292;2023-04-03T05:11:05;7.90;;;3.27;;
36457;SDS011;22480;50.546;12.292;2023-04-03T05:13:32;10.10;;;4.20;;
36457;SDS011;22480;50.546;12.292;2023-04-03T05:15:58;6.77;;;4.13;;
36457;SDS011;22480;50.546;12.292;2023-04-03T05:18:24;7.60;;;4.53;;
36457;SDS011;22480;50.546;12.292;2023-04-03T05:20:52;6.70;;;4.53;;
36457;SDS011;22480;50.546;12.292;2023-04-03T05:23:19;8.50;;;5.07;;
36457;SDS011;22480;50.546;12.292;2023-04-03T05:25:46;9.83;;;5.03;;
36457;SDS011;22480;50.546;12.292;2023-04-03T05:28:14;10.03;;;4.43;;
36457;SDS011;22480;50.546;12.292;2023-04-03T05:30:40;8.63;;;3.80;;
36457;SDS011;22480;50.546;12.292;2023-04-03T05:33:06;7.87;;;4.93;;
36457;SDS011;22480;50.546;12.292;2023-04-03T05:35:39;6.80;;;3.93;;
36457;SDS011;22480;50.546;12.292;2023-04-03T05:38:08;4.40;;;3.27;;
36457;SDS011;22480;50.546;12.292;2023-04-03T05:40:34;5.97;;;3.37;;
36457;SDS011;22480;50.546;12.292;2023-04-03T05:43:00;8.93;;;3.27;;
36457;SDS011;22480;50.546;12.292;2023-04-03T05:45:29;6.63;;;3.30;;
36457;SDS011;22480;50.546;12.292;2023-04-03T05:47:56;10.67;;;4.13;;
36457;SDS011;22480;50.546;12.292;2023-04-03T05:50:22;11.13;;;4.97;;
36457;SDS011;22480;50.546;12.292;2023-04-03T05:52:50;8.30;;;4.03;;
36457;SDS011;22480;50.546;12.292;2023-04-03T05:55:20;6.53;;;4.25;;
36457;SDS011;22480;50.546;12.292;2023-04-03T05:57:46;5.93;;;3.67;;
36457;SDS011;22480;50.546;12.292;2023-04-03T06:00:12;6.67;;;3.80;;
36457;SDS011;22480;50.546;12.292;2023-04-03T06:02:42;10.75;;;4.53;;
36457;SDS011;22480;50.546;12.292;2023-04-03T06:05:13;12.10;;;4.33;;
36457;SDS011;22480;50.546;12.292;2023-04-03T06:07:39;6.80;;;4.10;;
36457;SDS011;22480;50.546;12.292;2023-04-03T06:10:06;9.00;;;4.10;;
36457;SDS011;22480;50.546;12.292;2023-04-03T06:12:32;7.83;;;5.30;;
36457;SDS011;22480;50.546;12.292;2023-04-03T06:14:58;7.23;;;4.23;;
36457;SDS011;22480;50.546;12.292;2023-04-03T06:17:24;9.50;;;4.60;;
36457;SDS011;22480;50.546;12.292;2023-04-03T06:19:50;10.90;;;4.57;;
36457;SDS011;22480;50.546;12.292;2023-04-03T06:22:16;7.00;;;4.63;;
36457;SDS011;22480;50.546;12.292;2023-04-03T06:24:41;7.67;;;4.33;;
36457;SDS011;22480;50.546;12.292;2023-04-03T06:27:09;8.13;;;4.80;;
36457;SDS011;22480;50.546;12.292;2023-04-03T06:29:35;10.17;;;4.83;;
36457;SDS011;22480;50.546;12.292;2023-04-03T06:32:02;6.70;;;4.50;;
36457;SDS011;22480;50.546;12.292;2023-04-03T06:34:27;9.60;;;4.90;;
36457;SDS011;22480;50.546;12.292;2023-04-03T06:36:53;6.27;;;4.50;;
36457;SDS011;22480;50.546;12.292;2023-04-03T06:39:20;10.17;;;4.03;;
36457;SDS011;22480;50.546;12.292;2023-04-03T06:41:47;6.23;;;4.00;;
36457;SDS011;22480;50.546;12.292;2023-04-03T06:44:14;7.13;;;3.73;;
36457;SDS011;22480;50.546;12.292;2023-04-03T06:46:41;6.47;;;3.90;;
36457;SDS011;22480;50.546;12.292;2023-04-03T06:49:07;6.33;;;3.60;;
36457;SDS011;22480;50.546;12.292;2023-04-03T06:51:34;6.07;;;3.40;;
36457;SDS011;22480;50.546;12.292;2023-04-03T06:54:00;6.83;;;3.93;;
36457;SDS011;22480;50.546;12.292;2023-04-03T06:56:27;7.27;;;3.43;;
36457;SDS011;22480;50.546;12.292;2023-04-03T06:58:53;7.33;;;3.80;;
36457;SDS011;22480;50.546;12.292;2023-04-03T07:01:21;5.03;;;3.47;;
36457;SDS011;22480;50.546;12.292;2023-04-03T07:03:47;5.00;;;3.17;;
36457;SDS011;22480;50.546;12.292;2023-04-03T07:06:14;6.30;;;2.77;;
36457;SDS011;22480;50.546;12.292;2023-04-03T07:08:41;5.50;;;3.20;;
36457;SDS011;22480;50.546;12.292;2023-04-03T07:11:07;5.57;;;3.10;;
36457;SDS011;22480;50.546;12.292;2023-04-03T07:13:34;6.57;;;3.63;;
36457;SDS011;22480;50.546;12.292;2023-04-03T07:16:00;8.30;;;3.40;;
36457;SDS011;22480;50.546;12.292;2023-04-03T07:18:26;5.67;;;2.40;;
36457;SDS011;22480;50.546;12.292;2023-04-03T07:20:52;5.20;;;2.90;;
36457;SDS011;22480;50.546;12.292;2023-04-03T07:23:18;5.10;;;3.27;;
36457;SDS011;22480;50.546;12.292;2023-04-03T07:25:44;7.70;;;2.60;;
36457;SDS011;22480;50.546;12.292;2023-04-03T07:28:11;5.67;;;2.70;;
36457;SDS011;22480;50.546;12.292;2023-04-03T07:30:46;7.03;;;3.07;;
36457;SDS011;22480;50.546;12.292;2023-04-03T07:33:26;3.17;;;2.73;;
36457;SDS011;22480;50.546;12.292;2023-04-03T07:35:52;4.20;;;2.20;;
36457;SDS011;22480;50.546;12.292;2023-04-03T07:38:17;6.50;;;2.90;;
36457;SDS011;22480;50.546;12.292;2023-04-03T07:40:47;4.50;;;2.70;;
36457;SDS011;22480;50.546;12.292;2023-04-03T07:43:17;7.93;;;3.65;;
36457;SDS011;22480;50.546;12.292;2023-04-03T07:45:43;5.70;;;3.28;;
36457;SDS011;22480;50.546;12.292;2023-04-03T07:48:10;4.05;;;2.58;;
36457;SDS011;22480;50.546;12.292;2023-04-03T07:50:36;4.47;;;2.92;;
36457;SDS011;22480;50.546;12.292;2023-04-03T07:53:04;4.93;;;2.85;;
36457;SDS011;22480;50.546;12.292;2023-04-03T07:55:31;4.47;;;2.53;;
36457;SDS011;22480;50.546;12.292;2023-04-03T07:57:57;4.40;;;2.92;;
36457;SDS011;22480;50.546;12.292;2023-04-03T08:00:23;9.35;;;2.50;;
36457;SDS011;22480;50.546;12.292;2023-04-03T08:02:49;7.13;;;2.10;;
36457;SDS011;22480;50.546;12.292;2023-04-03T08:05:19;5.55;;;2.13;;
36457;SDS011;22480;50.546;12.292;2023-04-03T08:07:45;3.35;;;2.17;;
36457;SDS011;22480;50.546;12.292;2023-04-03T08:10:11;3.58;;;2.28;;
36457;SDS011;22480;50.546;12.292;2023-04-03T08:12:37;3.45;;;2.13;;
36457;SDS011;22480;50.546;12.292;2023-04-03T08:15:03;5.22;;;2.60;;
36457;SDS011;22480;50.546;12.292;2023-04-03T08:17:29;3.80;;;2.25;;
36457;SDS011;22480;50.546;12.292;2023-04-03T08:19:55;4.85;;;2.20;;
36457;SDS011;22480;50.546;12.292;2023-04-03T08:22:21;5.57;;;2.50;;
36457;SDS011;22480;50.546;12.292;2023-04-03T08:24:46;4.65;;;2.03;;
36457;SDS011;22480;50.546;12.292;2023-04-03T08:27:12;4.78;;;2.22;;
36457;SDS011;22480;50.546;12.292;2023-04-03T08:29:38;6.57;;;2.47;;
36457;SDS011;22480;50.546;12.292;2023-04-03T08:32:04;5.75;;;2.40;;
36457;SDS011;22480;50.546;12.292;2023-04-03T08:34:30;7.18;;;3.22;;
36457;SDS011;22480;50.546;12.292;2023-04-03T08:36:59;2.80;;;2.05;;
36457;SDS011;22480;50.546;12.292;2023-04-03T08:39:26;3.10;;;1.75;;
36457;SDS011;22480;50.546;12.292;2023-04-03T08:41:51;6.32;;;1.88;;
36457;SDS011;22480;50.546;12.292;2023-04-03T08:49:42;6.63;;;2.00;;
36457;SDS011;22480;50.546;12.292;2023-04-03T08:52:14;3.63;;;1.50;;
36457;SDS011;22480;50.546;12.292;2023-04-03T08:57:23;3.92;;;1.85;;
36457;SDS011;22480;50.546;12.292;2023-04-03T09:00:06;4.97;;;1.60;;
36457;SDS011;22480;50.546;12.292;2023-04-03T09:02:44;5.05;;;1.63;;
36457;SDS011;22480;50.546;12.292;2023-04-03T09:05:14;6.43;;;2.08;;
36457;SDS011;22480;50.546;12.292;2023-04-03T09:07:49;7.47;;;2.45;;
36457;SDS011;22480;50.546;12.292;2023-04-03T09:10:27;6.38;;;2.25;;
36457;SDS011;22480;50.546;12.292;2023-04-03T09:15:36;3.20;;;1.67;;
36457;SDS011;22480;50.546;12.292;2023-04-03T09:23:38;4.28;;;1.92;;
36457;SDS011;22480;50.546;12.292;2023-04-03T09:26:18;1.85;;;1.33;;
36457;SDS011;22480;50.546;12.292;2023-04-03T09:29:08;3.85;;;1.30;;
36457;SDS011;22480;50.546;12.292;2023-04-03T09:31:43;4.78;;;2.20;;
36457;SDS011;22480;50.546;12.292;2023-04-03T09:36:50;6.20;;;2.00;;
36457;SDS011;22480;50.546;12.292;2023-04-03T09:39:19;2.10;;;1.08;;
36457;SDS011;22480;50.546;12.292;2023-04-03T09:41:57;6.75;;;2.50;;
36457;SDS011;22480;50.546;12.292;2023-04-03T09:46:58;4.20;;;1.50;;
36457;SDS011;22480;50.546;12.292;2023-04-03T09:49:24;4.30;;;1.75;;
36457;SDS011;22480;50.546;12.292;2023-04-03T09:51:50;4.75;;;1.60;;
36457;SDS011;22480;50.546;12.292;2023-04-03T09:54:36;3.05;;;1.30;;
36457;SDS011;22480;50.546;12.292;2023-04-03T09:57:08;3.78;;;1.30;;
36457;SDS011;22480;50.546;12.292;2023-04-03T09:59:38;4.03;;;1.50;;
36457;SDS011;22480;50.546;12.292;2023-04-03T10:04:38;1.20;;;1.02;;
36457;SDS011;22480;50.546;12.292;2023-04-03T10:07:25;4.18;;;1.50;;
36457;SDS011;22480;50.546;12.292;2023-04-03T10:12:48;2.30;;;1.13;;
36457;SDS011;22480;50.546;12.292;2023-04-03T10:15:15;3.90;;;1.65;;
36457;SDS011;22480;50.546;12.292;2023-04-03T10:23:26;2.72;;;1.30;;
36457;SDS011;22480;50.546;12.292;2023-04-03T10:26:00;4.47;;;1.20;;
36457;SDS011;22480;50.546;12.292;2023-04-03T10:28:40;3.15;;;1.40;;
36457;SDS011;22480;50.546;12.292;2023-04-03T10:31:31;2.97;;;1.30;;
36457;SDS011;22480;50.546;12.292;2023-04-03T10:34:21;2.60;;;1.10;;
36457;SDS011;22480;50.546;12.292;2023-04-03T10:42:41;3.70;;;1.80;;
36457;SDS011;22480;50.546;12.292;2023-04-03T10:45:29;2.60;;;1.05;;
36457;SDS011;22480;50.546;12.292;2023-04-03T10:50:55;2.50;;;1.00;;
36457;SDS011;22480;50.546;12.292;2023-04-03T10:53:41;3.05;;;1.27;;
36457;SDS011;22480;50.546;12.292;2023-04-03T10:56:19;3.17;;;1.30;;
36457;SDS011;22480;50.546;12.292;2023-04-03T10:59:08;2.88;;;1.23;;
36457;SDS011;22480;50.546;12.292;2023-04-03T11:01:39;1.55;;;1.00;;
36457;SDS011;22480;50.546;12.292;2023-04-03T11:04:08;3.17;;;1.42;;
36457;SDS011;22480;50.546;12.292;2023-04-03T11:06:37;2.17;;;1.13;;
36457;SDS011;22480;50.546;12.292;2023-04-03T11:09:19;4.15;;;1.40;;
36457;SDS011;22480;50.546;12.292;2023-04-03T11:11:56;4.22;;;1.15;;
36457;SDS011;22480;50.546;12.292;2023-04-03T11:14:28;3.83;;;1.15;;
36457;SDS011;22480;50.546;12.292;2023-04-03T11:19:44;2.05;;;1.20;;
36457;SDS011;22480;50.546;12.292;2023-04-03T11:27:50;4.45;;;1.20;;
36457;SDS011;22480;50.546;12.292;2023-04-03T11:33:04;2.40;;;1.10;;
36457;SDS011;22480;50.546;12.292;2023-04-03T11:35:38;2.85;;;1.10;;
36457;SDS011;22480;50.546;12.292;2023-04-03T11:38:15;2.38;;;1.00;;
36457;SDS011;22480;50.546;12.292;2023-04-03T11:40:47;3.05;;;1.10;;
36457;SDS011;22480;50.546;12.292;2023-04-03T11:45:59;1.45;;;0.95;;
36457;SDS011;22480;50.546;12.292;2023-04-03T11:50:54;2.85;;;1.10;;
36457;SDS011;22480;50.546;12.292;2023-04-03T11:53:34;4.40;;;1.02;;
36457;SDS011;22480;50.546;12.292;2023-04-03T11:56:43;2.55;;;0.93;;
36457;SDS011;22480;50.546;12.292;2023-04-03T12:04:25;2.80;;;1.20;;
36457;SDS011;22480;50.546;12.292;2023-04-03T12:07:25;4.75;;;0.80;;
36457;SDS011;22480;50.546;12.292;2023-04-03T12:15:24;3.70;;;1.30;;
36457;SDS011;22480;50.546;12.292;2023-04-03T12:17:52;1.58;;;1.10;;
36457;SDS011;22480;50.546;12.292;2023-04-03T12:26:00;1.77;;;0.95;;
36457;SDS011;22480;50.546;12.292;2023-04-03T12:31:13;2.70;;;0.70;;
36457;SDS011;22480;50.546;12.292;2023-04-03T12:42:00;2.53;;;1.00;;
36457;SDS011;22480;50.546;12.292;2023-04-03T12:44:53;2.42;;;0.80;;
36457;SDS011;22480;50.546;12.292;2023-04-03T12:47:25;2.50;;;1.10;;
36457;SDS011;22480;50.546;12.292;2023-04-03T12:49:53;4.32;;;1.05;;
36457;SDS011;22480;50.546;12.292;2023-04-03T12:55:07;4.07;;;1.15;;
36457;SDS011;22480;50.546;12.292;2023-04-03T12:57:40;4.75;;;0.98;;
36457;SDS011;22480;50.546;12.292;2023-04-03T13:00:21;2.58;;;0.80;;
36457;SDS011;22480;50.546;12.292;2023-04-03T13:02:48;3.65;;;0.63;;
36457;SDS011;22480;50.546;12.292;2023-04-03T13:05:15;2.33;;;1.15;;
36457;SDS011;22480;50.546;12.292;2023-04-03T13:07:43;1.83;;;0.60;;
36457;SDS011;22480;50.546;12.292;2023-04-03T13:12:44;2.50;;;0.90;;
36457;SDS011;22480;50.546;12.292;2023-04-03T13:15:30;1.73;;;0.70;;
36457;SDS011;22480;50.546;12.292;2023-04-03T13:18:21;3.42;;;1.13;;
36457;SDS011;22480;50.546;12.292;2023-04-03T13:20:50;3.88;;;0.80;;
36457;SDS011;22480;50.546;12.292;2023-04-03T13:23:17;2.85;;;0.80;;
36457;SDS011;22480;50.546;12.292;2023-04-03T13:25:46;2.53;;;0.90;;
36457;SDS011;22480;50.546;12.292;2023-04-03T13:28:13;2.97;;;1.20;;
36457;SDS011;22480;50.546;12.292;2023-04-03T13:30:53;2.13;;;1.13;;
36457;SDS011;22480;50.546;12.292;2023-04-03T13:33:27;2.47;;;0.77;;
36457;SDS011;22480;50.546;12.292;2023-04-03T13:35:58;0.93;;;0.50;;
36457;SDS011;22480;50.546;12.292;2023-04-03T13:38:29;3.35;;;0.63;;
36457;SDS011;22480;50.546;12.292;2023-04-03T13:41:00;1.83;;;0.73;;
36457;SDS011;22480;50.546;12.292;2023-04-03T13:43:30;1.92;;;0.80;;
36457;SDS011;22480;50.546;12.292;2023-04-03T13:46:03;2.70;;;0.93;;
36457;SDS011;22480;50.546;12.292;2023-04-03T13:48:36;5.07;;;1.27;;
36457;SDS011;22480;50.546;12.292;2023-04-03T13:59:02;2.28;;;0.80;;
36457;SDS011;22480;50.546;12.292;2023-04-03T14:01:53;3.15;;;0.77;;
36457;SDS011;22480;50.546;12.292;2023-04-03T14:04:20;2.38;;;1.10;;
36457;SDS011;22480;50.546;12.292;2023-04-03T14:06:51;3.13;;;1.33;;
36457;SDS011;22480;50.546;12.292;2023-04-03T14:09:18;5.32;;;3.83;;
36457;SDS011;22480;50.546;12.292;2023-04-03T14:11:46;8.13;;;4.95;;
36457;SDS011;22480;50.546;12.292;2023-04-03T14:14:31;1.98;;;0.85;;
36457;SDS011;22480;50.546;12.292;2023-04-03T14:16:59;4.00;;;1.45;;
36457;SDS011;22480;50.546;12.292;2023-04-03T14:19:31;5.43;;;1.80;;
36457;SDS011;22480;50.546;12.292;2023-04-03T14:22:00;1.92;;;1.10;;
36457;SDS011;22480;50.546;12.292;2023-04-03T14:24:31;3.15;;;1.10;;
36457;SDS011;22480;50.546;12.292;2023-04-03T14:26:57;3.22;;;1.30;;
36457;SDS011;22480;50.546;12.292;2023-04-03T14:29:23;17.08;;;9.27;;
36457;SDS011;22480;50.546;12.292;2023-04-03T14:31:49;10.88;;;6.47;;
36457;SDS011;22480;50.546;12.292;2023-04-03T14:34:16;19.05;;;10.48;;
36457;SDS011;22480;50.546;12.292;2023-04-03T14:36:42;2.53;;;0.90;;
36457;SDS011;22480;50.546;12.292;2023-04-03T14:39:10;5.82;;;3.90;;
36457;SDS011;22480;50.546;12.292;2023-04-03T14:41:42;11.63;;;6.18;;
36457;SDS011;22480;50.546;12.292;2023-04-03T14:44:08;12.38;;;8.65;;
36457;SDS011;22480;50.546;12.292;2023-04-03T14:46:35;10.15;;;4.93;;
36457;SDS011;22480;50.546;12.292;2023-04-03T14:49:03;13.50;;;4.75;;
36457;SDS011;22480;50.546;12.292;2023-04-03T14:51:37;8.98;;;4.80;;
36457;SDS011;22480;50.546;12.292;2023-04-03T14:54:03;8.00;;;3.63;;
36457;SDS011;22480;50.546;12.292;2023-04-03T14:56:30;2.28;;;1.00;;
36457;SDS011;22480;50.546;12.292;2023-04-03T14:58:57;9.65;;;3.40;;
36457;SDS011;22480;50.546;12.292;2023-04-03T15:01:24;3.25;;;1.30;;
36457;SDS011;22480;50.546;12.292;2023-04-03T15:03:51;2.88;;;1.77;;
36457;SDS011;22480;50.546;12.292;2023-04-03T15:06:17;4.05;;;1.27;;
36457;SDS011;22480;50.546;12.292;2023-04-03T15:08:43;3.15;;;1.00;;
36457;SDS011;22480;50.546;12.292;2023-04-03T15:11:10;2.78;;;1.48;;
36457;SDS011;22480;50.546;12.292;2023-04-03T15:13:39;8.13;;;3.50;;
36457;SDS011;22480;50.546;12.292;2023-04-03T15:16:15;4.68;;;1.98;;
36457;SDS011;22480;50.546;12.292;2023-04-03T15:18:43;11.02;;;3.85;;
36457;SDS011;22480;50.546;12.292;2023-04-03T15:21:09;8.38;;;3.53;;
36457;SDS011;22480;50.546;12.292;2023-04-03T15:23:35;4.07;;;2.05;;
36457;SDS011;22480;50.546;12.292;2023-04-03T15:26:01;2.95;;;1.45;;
36457;SDS011;22480;50.546;12.292;2023-04-03T15:28:32;4.22;;;2.15;;
36457;SDS011;22480;50.546;12.292;2023-04-03T15:31:01;5.30;;;2.00;;
36457;SDS011;22480;50.546;12.292;2023-04-03T15:33:27;3.58;;;1.52;;
36457;SDS011;22480;50.546;12.292;2023-04-03T15:35:53;6.13;;;1.52;;
36457;SDS011;22480;50.546;12.292;2023-04-03T15:38:19;3.35;;;0.90;;
36457;SDS011;22480;50.546;12.292;2023-04-03T15:40:45;2.15;;;1.33;;
36457;SDS011;22480;50.546;12.292;2023-04-03T15:43:12;3.90;;;1.40;;
36457;SDS011;22480;50.546;12.292;2023-04-03T15:45:38;4.03;;;1.20;;
36457;SDS011;22480;50.546;12.292;2023-04-03T15:48:05;2.33;;;0.85;;
36457;SDS011;22480;50.546;12.292;2023-04-03T15:50:32;3.33;;;1.60;;
36457;SDS011;22480;50.546;12.292;2023-04-03T15:52:58;1.38;;;1.10;;
36457;SDS011;22480;50.546;12.292;2023-04-03T15:55:26;5.82;;;1.70;;
36457;SDS011;22480;50.546;12.292;2023-04-03T15:57:54;4.05;;;1.52;;
36457;SDS011;22480;50.546;12.292;2023-04-03T16:00:20;2.38;;;0.85;;
36457;SDS011;22480;50.546;12.292;2023-04-03T16:02:47;4.35;;;1.60;;
36457;SDS011;22480;50.546;12.292;2023-04-03T16:05:15;3.10;;;1.83;;
36457;SDS011;22480;50.546;12.292;2023-04-03T16:07:42;4.00;;;1.50;;
36457;SDS011;22480;50.546;12.292;2023-04-03T16:10:09;7.35;;;2.85;;
36457;SDS011;22480;50.546;12.292;2023-04-03T16:12:35;3.08;;;1.33;;
36457;SDS011;22480;50.546;12.292;2023-04-03T16:15:02;2.85;;;1.13;;
36457;SDS011;22480;50.546;12.292;2023-04-03T16:17:28;3.05;;;1.30;;
36457;SDS011;22480;50.546;12.292;2023-04-03T16:19:55;5.45;;;1.08;;
36457;SDS011;22480;50.546;12.292;2023-04-03T16:22:21;4.55;;;1.05;;
36457;SDS011;22480;50.546;12.292;2023-04-03T16:24:49;2.50;;;0.82;;
36457;SDS011;22480;50.546;12.292;2023-04-03T16:27:15;3.58;;;1.10;;
36457;SDS011;22480;50.546;12.292;2023-04-03T16:29:41;2.10;;;1.05;;